createdAt,value
2022-10-03T00:00:19.216Z,98046.25
2022-10-03T00:03:39.811Z,98043.16
2022-10-03T00:06:44.687Z,98030.41
2022-10-03T00:09:53.034Z,98016.78
2022-10-03T00:13:11.891Z,98022.81
2022-10-03T00:16:37.928Z,98001.34
2022-10-03T00:19:47.567Z,98001.81
2022-10-03T00:22:54.283Z,97992.94
2022-10-03T00:26:24.100Z,97984.34
2022-10-03T00:29:30.559Z,97983.63
2022-10-03T00:32:24.865Z,97978.94
2022-10-03T00:35:15.608Z,97987.09
2022-10-03T00:38:44.805Z,97973.34
2022-10-03T00:41:53.943Z,97967.06
2022-10-03T00:45:23.949Z,97959.53
2022-10-03T00:48:23.840Z,97963.28
2022-10-03T00:51:43.940Z,97967.25
2022-10-03T00:54:53.899Z,97957.34
2022-10-03T00:58:09.187Z,97953.69
2022-10-03T01:01:30.095Z,97952.22
2022-10-03T01:04:28.994Z,97953.25
2022-10-03T01:07:35.715Z,97937.66
2022-10-03T01:10:30.056Z,97936.69
2022-10-03T01:13:52.502Z,97942.00
2022-10-03T01:16:55.990Z,97923.44
2022-10-03T01:20:09.439Z,97913.31
2022-10-03T01:23:00.515Z,97907.59
2022-10-03T01:25:52.575Z,97902.91
2022-10-03T01:29:11.416Z,97899.81
2022-10-03T01:32:05.536Z,97888.34
2022-10-03T01:35:38.331Z,97881.84
2022-10-03T01:39:03.568Z,97874.50
2022-10-03T01:42:04.472Z,97876.09
2022-10-03T01:44:58.494Z,97866.44
2022-10-03T01:48:01.824Z,97874.84
2022-10-03T01:51:14.093Z,97869.13
2022-10-03T01:54:04.953Z,97869.91
2022-10-03T01:57:01.899Z,97872.03
2022-10-03T01:59:49.689Z,97866.56
2022-10-03T02:02:54.670Z,97849.59
2022-10-03T02:06:03.377Z,97858.25
2022-10-03T02:09:11.099Z,97858.53
2022-10-03T02:12:09.801Z,97843.84
2022-10-03T02:15:30.132Z,97846.25
2022-10-03T02:18:55.302Z,97845.75
2022-10-03T02:21:55.219Z,97842.34
2022-10-03T02:25:00.680Z,97835.84
2022-10-03T02:28:18.337Z,97834.56
2022-10-03T02:31:23.716Z,97833.53
2022-10-03T02:34:30.655Z,97825.41
2022-10-03T02:37:40.973Z,97831.75
2022-10-03T02:41:08.513Z,97826.59
2022-10-03T02:44:18.201Z,97833.94
2022-10-03T02:47:21.300Z,97827.44
2022-10-03T02:50:38.855Z,97826.44
2022-10-03T02:53:45.899Z,97823.34
2022-10-03T02:56:42.834Z,97793.22
2022-10-03T02:59:43.933Z,97821.31
2022-10-03T03:02:54.980Z,97817.41
2022-10-03T03:05:58.650Z,97818.72
2022-10-03T03:09:27.323Z,97806.44
2022-10-03T03:12:24.396Z,97814.84
2022-10-03T03:15:44.338Z,97803.81
2022-10-03T03:18:46.749Z,97798.09
2022-10-03T03:21:53.621Z,97800.16
2022-10-03T03:24:54.473Z,97794.44
2022-10-03T03:28:02.248Z,97783.94
2022-10-03T03:31:07.550Z,97789.19
2022-10-03T03:34:23.209Z,97796.06
2022-10-03T03:37:27.119Z,97795.25
2022-10-03T03:40:32.445Z,97793.47
2022-10-03T03:43:34.936Z,97786.69
2022-10-03T03:46:49.349Z,97780.41
2022-10-03T03:49:51.859Z,97782.56
2022-10-03T03:53:01.742Z,97771.81
2022-10-03T03:56:00.710Z,97769.22
2022-10-03T03:59:16.715Z,97765.88
2022-10-03T04:02:35.476Z,97764.28
2022-10-03T04:06:14.239Z,97755.13
2022-10-03T04:09:14.643Z,97744.94
2022-10-03T04:13:14.021Z,97733.72
2022-10-03T04:16:58.382Z,97724.00
2022-10-03T04:19:48.783Z,97724.53
2022-10-03T04:23:01.599Z,97724.31
2022-10-03T04:26:02.453Z,97718.84
2022-10-03T04:29:36.661Z,97712.59
2022-10-03T04:33:01.869Z,97713.16
2022-10-03T04:36:16.341Z,97707.91
2022-10-03T04:39:17.096Z,97705.34
2022-10-03T04:42:24.636Z,97702.22
2022-10-03T04:45:15.477Z,97700.91
2022-10-03T04:48:17.059Z,97702.25
2022-10-03T04:52:03.896Z,97699.97
2022-10-03T04:55:06.774Z,97696.56
2022-10-03T04:58:36.822Z,97693.16
2022-10-03T05:01:50.961Z,97691.91
2022-10-03T05:05:01.966Z,97690.63
2022-10-03T05:08:18.943Z,97682.53
2022-10-03T05:11:19.223Z,97670.50
2022-10-03T05:14:18.858Z,97673.13
2022-10-03T05:17:25.442Z,97668.66
2022-10-03T05:20:43.290Z,97675.44
